createdAt,value
2018-06-20T00:02:44.986Z,68.21
2018-06-20T00:07:39.682Z,68.34
2018-06-20T00:12:34.255Z,68.65
2018-06-20T00:17:28.814Z,70.06
2018-06-20T00:22:23.337Z,69.36
2018-06-20T00:27:17.879Z,69.03
2018-06-20T00:32:12.394Z,69.13
2018-06-20T00:37:06.940Z,69.71
2018-06-20T00:42:01.511Z,69.88
2018-06-20T00:46:56.245Z,69.58
2018-06-20T00:51:50.796Z,69.49
2018-06-20T00:56:45.340Z,71.21
2018-06-20T01:01:39.880Z,70.55
2018-06-20T01:06:34.395Z,70.41
2018-06-20T01:11:28.998Z,70.16
2018-06-20T01:21:25.370Z,69.68
2018-06-20T01:26:19.903Z,70.91
2018-06-20T01:31:14.543Z,71.30
2018-06-20T01:36:08.849Z,72.00
2018-06-20T01:41:03.465Z,70.94
2018-06-20T01:45:57.989Z,73.14
2018-06-20T01:50:56.999Z,72.12
2018-06-20T01:55:51.814Z,71.93
2018-06-20T02:00:46.453Z,72.09
2018-06-20T02:05:40.978Z,71.49
2018-06-20T02:10:35.510Z,71.04
2018-06-20T02:15:30.089Z,72.93
2018-06-20T02:20:25.321Z,73.54
2018-06-20T02:25:19.877Z,74.26
2018-06-20T02:30:17.292Z,73.60
2018-06-20T02:35:11.867Z,73.70
2018-06-20T02:40:06.591Z,72.37
2018-06-20T02:45:01.131Z,73.02
2018-06-20T02:49:55.770Z,73.61
2018-06-20T02:54:50.367Z,74.10
2018-06-20T02:59:44.971Z,73.44
2018-06-20T03:04:39.655Z,72.96
2018-06-20T03:09:34.276Z,74.10
2018-06-20T03:14:29.018Z,74.08
2018-06-20T03:19:24.816Z,74.71
2018-06-20T03:24:19.335Z,73.71
2018-06-20T03:29:13.886Z,74.40
2018-06-20T03:34:08.412Z,73.34
2018-06-20T03:39:03.089Z,73.55
2018-06-20T03:43:57.685Z,74.39
2018-06-20T03:48:52.183Z,73.95
2018-06-20T03:53:46.710Z,74.16
2018-06-20T03:58:42.818Z,75.04
2018-06-20T04:03:37.382Z,75.22
2018-06-20T04:08:31.975Z,75.03
2018-06-20T04:13:26.577Z,75.21
2018-06-20T04:18:24.172Z,75.92
2018-06-20T04:23:18.710Z,75.62
2018-06-20T04:28:13.313Z,75.00
2018-06-20T04:33:07.941Z,74.20
2018-06-20T04:38:02.522Z,73.14
2018-06-20T04:42:58.966Z,72.19
2018-06-20T04:47:55.368Z,70.10
2018-06-20T04:52:49.889Z,67.92
2018-06-20T04:57:44.404Z,66.71
2018-06-20T05:02:39.149Z,64.51
2018-06-20T05:07:33.798Z,63.34
2018-06-20T05:12:28.363Z,62.80
2018-06-20T05:17:23.048Z,61.38
2018-06-20T05:22:17.614Z,60.55
2018-06-20T05:27:12.114Z,59.00
2018-06-20T05:32:06.725Z,58.55
2018-06-20T05:37:01.256Z,58.78
2018-06-20T05:41:55.903Z,57.89
2018-06-20T05:46:50.595Z,59.17
2018-06-20T05:51:44.882Z,58.24
2018-06-20T05:56:39.496Z,59.86
2018-06-20T06:01:34.167Z,61.76
2018-06-20T06:06:29.874Z,62.10
2018-06-20T06:11:24.428Z,62.44
2018-06-20T06:16:19.011Z,63.68
2018-06-20T06:21:13.635Z,63.83
2018-06-20T06:26:08.243Z,61.71
2018-06-20T06:31:02.766Z,61.67
2018-06-20T06:35:57.340Z,61.97
2018-06-20T06:40:52.528Z,60.46
2018-06-20T06:45:47.119Z,59.36
2018-06-20T06:50:41.708Z,61.09
2018-06-20T06:55:36.258Z,58.55
2018-06-20T07:00:30.926Z,61.40
2018-06-20T07:05:25.537Z,54.19
2018-06-20T07:10:20.146Z,55.37
2018-06-20T07:15:14.795Z,52.46
2018-06-20T07:20:09.457Z,51.55
2018-06-20T07:25:04.326Z,51.06
2018-06-20T07:29:58.967Z,51.33
2018-06-20T07:34:53.766Z,50.93
2018-06-20T07:39:48.291Z,48.70
2018-06-20T07:44:42.890Z,49.46
2018-06-20T07:49:37.443Z,48.67
2018-06-20T07:54:31.991Z,50.38
2018-06-20T07:59:30.563Z,49.20
2018-06-20T08:04:30.233Z,49.59
2018-06-20T08:09:29.769Z,49.37
2018-06-20T08:14:29.393Z,50.10
2018-06-20T08:19:28.935Z,49.79
2018-06-20T08:24:23.480Z,49.85
2018-06-20T08:29:18.021Z,49.92
2018-06-20T08:34:12.778Z,48.86
2018-06-20T08:39:08.810Z,46.80
2018-06-20T08:44:03.598Z,47.65
2018-06-20T08:48:58.163Z,47.92
2018-06-20T08:53:52.745Z,46.56
2018-06-20T08:58:47.398Z,46.18
2018-06-20T09:03:42.738Z,44.73
2018-06-20T09:08:42.417Z,45.70
2018-06-20T09:13:45.794Z,43.83
2018-06-20T09:18:45.309Z,44.04
2018-06-20T09:23:39.933Z,42.13
2018-06-20T09:28:34.602Z,42.05
2018-06-20T09:33:29.208Z,42.86
2018-06-20T09:38:23.771Z,41.87
2018-06-20T09:43:18.372Z,42.27
2018-06-20T09:48:12.931Z,40.13
2018-06-20T09:53:07.821Z,41.47
2018-06-20T09:58:02.433Z,41.65
2018-06-20T10:03:02.043Z,41.71
2018-06-20T10:08:04.639Z,40.44
2018-06-20T10:13:04.319Z,41.38
2018-06-20T10:17:58.839Z,39.62
2018-06-20T10:22:53.509Z,39.83
2018-06-20T10:27:48.031Z,39.79
2018-06-20T10:32:42.599Z,39.92
2018-06-20T10:37:37.256Z,40.83
2018-06-20T10:42:31.894Z,37.63
2018-06-20T10:47:31.641Z,40.39
2018-06-20T10:52:26.295Z,40.18
2018-06-20T10:57:26.014Z,37.31
2018-06-20T11:02:25.739Z,41.16
2018-06-20T11:07:25.346Z,39.74
2018-06-20T11:12:24.957Z,35.96
2018-06-20T11:17:19.559Z,37.64
2018-06-20T11:22:14.287Z,35.88
2018-06-20T11:27:08.929Z,36.83
2018-06-20T11:32:03.514Z,38.29
2018-06-20T11:36:58.044Z,35.65
2018-06-20T11:41:52.598Z,36.17
2018-06-20T11:46:52.297Z,38.06
2018-06-20T11:51:46.896Z,35.12
2018-06-20T11:56:41.527Z,35.58
2018-06-20T12:01:41.258Z,35.21
2018-06-20T12:06:41.039Z,33.00
2018-06-20T12:11:40.958Z,36.77
2018-06-20T12:16:36.664Z,35.96
2018-06-20T12:21:36.344Z,34.16
2018-06-20T12:26:35.995Z,36.00
2018-06-20T12:31:35.793Z,34.72
2018-06-20T12:36:35.640Z,37.38
2018-06-20T12:41:36.964Z,36.44
2018-06-20T12:46:51.566Z,34.08
2018-06-20T12:51:46.095Z,36.77
2018-06-20T12:56:40.630Z,34.31
2018-06-20T13:01:35.210Z,36.61
2018-06-20T13:06:29.839Z,36.75
2018-06-20T13:11:24.397Z,36.13
2018-06-20T13:16:18.944Z,38.33
2018-06-20T13:21:13.506Z,36.06
2018-06-20T13:26:08.067Z,34.72
2018-06-20T13:31:07.695Z,39.32
2018-06-20T13:36:07.324Z,35.74
2018-06-20T13:41:07.022Z,38.04
2018-06-20T13:46:06.839Z,37.18
2018-06-20T13:51:01.443Z,37.53
2018-06-20T13:55:55.975Z,39.72
2018-06-20T14:00:50.539Z,39.85
2018-06-20T14:05:45.099Z,40.33
2018-06-20T14:10:39.829Z,38.95
2018-06-20T14:15:34.468Z,40.29
2018-06-20T14:20:34.232Z,37.76
2018-06-20T14:25:28.853Z,38.78
2018-06-20T14:30:28.492Z,38.84
2018-06-20T14:35:28.052Z,36.93
2018-06-20T14:40:27.543Z,37.06
2018-06-20T14:45:27.283Z,38.14
2018-06-20T14:50:21.880Z,37.83
2018-06-20T14:55:16.462Z,39.01
2018-06-20T15:00:11.044Z,37.33
2018-06-20T15:05:05.947Z,40.24
2018-06-20T15:10:00.482Z,37.85
2018-06-20T15:14:55.042Z,39.06
2018-06-20T15:19:49.629Z,39.25
2018-06-20T15:24:44.178Z,40.18
2018-06-20T15:29:43.873Z,40.19
2018-06-20T15:34:43.465Z,39.78
2018-06-20T15:39:38.083Z,38.15
2018-06-20T15:44:32.655Z,39.94
2018-06-20T15:49:27.323Z,38.47
2018-06-20T15:54:21.903Z,41.11
2018-06-20T15:59:16.461Z,39.20
2018-06-20T16:04:11.039Z,37.14
2018-06-20T16:09:12.974Z,40.41
2018-06-20T16:14:07.547Z,39.77
2018-06-20T16:19:07.366Z,37.33
2018-06-20T16:24:07.216Z,40.27
2018-06-20T16:29:07.102Z,39.49
2018-06-20T16:34:02.105Z,38.76
2018-06-20T16:38:57.464Z,39.88
2018-06-20T16:43:52.171Z,40.02
2018-06-20T16:48:46.443Z,43.39
2018-06-20T16:53:41.002Z,41.31
2018-06-20T16:58:35.571Z,37.60
2018-06-20T17:03:30.166Z,40.19
2018-06-20T17:08:24.716Z,41.05
2018-06-20T17:13:24.400Z,41.39
2018-06-20T17:18:24.227Z,38.98
2018-06-20T17:23:23.860Z,40.84
2018-06-20T17:28:18.583Z,40.75
2018-06-20T17:33:13.152Z,40.77
2018-06-20T17:38:07.789Z,38.80
2018-06-20T17:43:02.365Z,43.00
2018-06-20T17:47:56.951Z,43.06
2018-06-20T17:52:51.547Z,43.83
2018-06-20T17:57:46.123Z,45.08
2018-06-20T18:02:40.699Z,48.36
2018-06-20T18:07:40.338Z,46.98
2018-06-20T18:12:40.124Z,46.53
2018-06-20T18:17:34.708Z,51.11
2018-06-20T18:22:30.324Z,51.90
2018-06-20T18:27:24.981Z,50.21
2018-06-20T18:32:19.575Z,47.29
2018-06-20T18:37:14.124Z,49.47
2018-06-20T18:42:08.738Z,47.76
2018-06-20T18:47:03.343Z,48.28
2018-06-20T18:51:57.927Z,50.33
2018-06-20T18:56:52.611Z,52.28
2018-06-20T19:01:52.452Z,54.73
2018-06-20T19:06:52.315Z,55.56
2018-06-20T19:11:47.291Z,54.51
2018-06-20T19:16:41.928Z,55.33
2018-06-20T19:21:37.487Z,56.41
2018-06-20T19:26:32.327Z,55.75
2018-06-20T19:31:26.534Z,56.90
2018-06-20T19:36:21.090Z,57.60
2018-06-20T19:41:15.691Z,58.86
2018-06-20T19:46:10.299Z,58.84
2018-06-20T19:51:05.202Z,59.19
2018-06-20T19:55:59.804Z,59.73
2018-06-20T20:00:54.414Z,58.29
2018-06-20T20:05:49.026Z,59.97
2018-06-20T20:10:43.648Z,60.02
2018-06-20T20:15:38.249Z,60.27
2018-06-20T20:20:32.847Z,60.87
2018-06-20T20:25:27.454Z,60.03
2018-06-20T20:30:22.092Z,59.29
2018-06-20T20:35:16.719Z,59.54
2018-06-20T20:40:11.306Z,60.13
2018-06-20T20:45:06.060Z,61.07
2018-06-20T20:50:00.718Z,61.72
2018-06-20T20:54:55.292Z,62.16
2018-06-20T20:59:49.819Z,62.81
2018-06-20T21:04:44.451Z,64.74
2018-06-20T21:09:39.077Z,64.37
2018-06-20T21:14:33.699Z,65.55
2018-06-20T21:19:28.247Z,63.87
2018-06-20T21:24:22.474Z,63.71
2018-06-20T21:29:17.046Z,62.99
2018-06-20T21:34:11.655Z,62.62
2018-06-20T21:39:09.855Z,63.03
2018-06-20T21:44:04.442Z,63.28
2018-06-20T21:48:58.998Z,63.18
2018-06-20T21:53:53.619Z,63.70
2018-06-20T21:58:48.189Z,63.83
2018-06-20T22:03:42.485Z,63.40
2018-06-20T22:08:36.719Z,64.26
2018-06-20T22:13:31.293Z,64.52
2018-06-20T22:18:25.887Z,64.49
2018-06-20T22:23:20.387Z,64.90
2018-06-20T22:28:14.963Z,65.04
2018-06-20T22:33:09.479Z,64.84
2018-06-20T22:38:04.059Z,64.74
2018-06-20T22:42:58.629Z,66.49
2018-06-20T22:47:53.339Z,66.68
2018-06-20T22:52:47.577Z,66.93
2018-06-20T22:57:42.136Z,66.73
2018-06-20T23:02:36.731Z,66.78
2018-06-20T23:07:31.376Z,67.24
2018-06-20T23:12:25.910Z,67.54
2018-06-20T23:17:20.479Z,67.43
2018-06-20T23:22:15.029Z,68.53
2018-06-20T23:27:09.643Z,68.71
2018-06-20T23:32:04.203Z,68.62
2018-06-20T23:36:58.760Z,67.82
2018-06-20T23:41:53.311Z,68.19
2018-06-20T23:46:47.899Z,69.74
2018-06-20T23:51:42.511Z,69.48
2018-06-20T23:56:37.050Z,68.16
